Time;durP1;ratioP1;P1;durP2;ratioP2;P2;SDS_P1;SDS_P2;PMS_P1;PMS_P2;Temp;Humidity;BMP_temperature;BMP_pressure;BME280_temperature;BME280_humidity;BME280_pressure;Samples;Min_cycle;Max_cycle;Signal;HPM_P1;HPM_P2
2023/10/03 00:01:19;;;;;;;13.80;8.20;;;17.80;68.80;16.80;96794.00;;;;4965975;28;20203;-88
2023/10/03 00:03:48;;;;;;;15.70;8.43;;;17.80;68.80;16.70;96796.00;;;;4962742;28;20229;-88
2023/10/03 00:06:15;;;;;;;15.97;8.30;;;17.70;68.80;16.70;96794.00;;;;4963025;28;20251;-88
2023/10/03 00:08:46;;;;;;;17.07;8.70;;;17.70;68.80;16.70;96803.00;;;;4970997;28;20227;-88
2023/10/03 00:11:18;;;;;;;14.67;8.00;;;17.70;68.90;16.70;96790.00;;;;4952203;28;20295;-88
2023/10/03 00:13:46;;;;;;;16.43;8.70;;;17.70;68.80;16.60;96789.00;;;;4967775;28;20199;-88
2023/10/03 00:16:13;;;;;;;15.83;8.17;;;17.70;68.80;16.60;96786.00;;;;4971221;28;20678;-88
2023/10/03 00:18:40;;;;;;;14.57;8.20;;;17.60;68.80;16.60;96779.00;;;;4971283;28;20206;-88
2023/10/03 00:21:08;;;;;;;14.27;8.23;;;17.60;68.80;16.60;96777.00;;;;4971782;28;20243;-88
2023/10/03 00:23:35;;;;;;;14.77;7.80;;;17.60;69.00;16.50;96778.00;;;;4971521;28;20203;-87
2023/10/03 00:26:04;;;;;;;14.70;8.20;;;17.60;69.00;16.50;96770.00;;;;4971366;28;20253;-88
2023/10/03 00:28:34;;;;;;;16.30;8.47;;;17.60;69.00;16.50;96777.00;;;;4971182;28;20226;-88
2023/10/03 00:31:03;;;;;;;14.93;8.40;;;17.50;68.90;16.50;96764.00;;;;4971128;28;20238;-88
2023/10/03 00:33:30;;;;;;;16.40;9.10;;;17.50;68.90;16.50;96759.00;;;;4971289;28;20211;-88
2023/10/03 00:35:57;;;;;;;13.63;7.47;;;17.50;68.90;16.40;96769.00;;;;4971259;28;20231;-88
2023/10/03 00:38:24;;;;;;;16.87;8.50;;;17.50;68.90;16.40;96760.00;;;;4970718;28;20207;-88
2023/10/03 00:40:55;;;;;;;16.83;8.33;;;17.40;68.80;16.40;96765.00;;;;4971193;28;20261;-88
2023/10/03 00:43:24;;;;;;;14.47;7.57;;;17.40;68.80;16.30;96764.00;;;;4971360;28;20214;-88
2023/10/03 00:45:51;;;;;;;16.43;8.30;;;17.40;68.80;16.30;96755.00;;;;4972130;28;20704;-88
2023/10/03 00:48:27;;;;;;;15.07;8.57;;;17.40;68.70;16.30;96758.00;;;;4971667;28;20662;-88
2023/10/03 00:50:55;;;;;;;17.67;9.63;;;17.30;68.80;16.30;96751.00;;;;4970213;28;20282;-88
2023/10/03 00:53:23;;;;;;;17.50;8.70;;;17.30;68.80;16.30;96752.00;;;;4968539;28;20265;-88
2023/10/03 00:55:56;;;;;;;14.13;8.20;;;17.30;68.80;16.20;96754.00;;;;4970766;28;20615;-88
2023/10/03 00:58:28;;;;;;;12.17;7.57;;;17.30;68.80;16.20;96751.00;;;;4966861;28;20240;-88
2023/10/03 01:00:57;;;;;;;15.53;8.37;;;17.30;68.80;16.20;96753.00;;;;4968138;28;20210;-88
2023/10/03 01:03:32;;;;;;;16.77;8.00;;;17.30;68.80;16.20;96749.00;;;;4958375;28;20575;-88
2023/10/03 01:06:07;;;;;;;15.70;7.97;;;17.20;68.80;16.10;96750.00;;;;4965988;28;20238;-88
2023/10/03 01:08:36;;;;;;;15.50;8.10;;;17.20;68.80;16.10;96751.00;;;;4969577;28;20569;-88
2023/10/03 01:11:28;;;;;;;16.17;8.63;;;17.20;68.80;16.10;96757.00;;;;4965730;28;20686;-88
2023/10/03 01:16:57;;;;;;;13.77;8.10;;;17.10;68.60;16.00;96751.00;;;;4962760;28;20231;-88
2023/10/03 01:19:35;;;;;;;13.10;8.00;;;17.10;68.70;16.00;96744.00;;;;4967126;28;20207;-88
2023/10/03 01:22:11;;;;;;;13.80;7.63;;;17.10;68.70;16.00;96749.00;;;;4962857;28;20221;-88
2023/10/03 01:24:39;;;;;;;16.27;8.27;;;17.00;68.70;15.90;96749.00;;;;4958883;28;20214;-88
2023/10/03 01:27:11;;;;;;;13.87;7.90;;;17.00;68.80;15.90;96740.00;;;;4971367;28;20277;-88
2023/10/03 01:29:48;;;;;;;15.77;8.90;;;17.00;68.80;15.90;96728.00;;;;4962901;28;20223;-88
2023/10/03 01:32:21;;;;;;;15.90;7.93;;;17.00;68.90;15.80;96729.00;;;;4962558;28;20200;-88
2023/10/03 01:34:49;;;;;;;12.93;7.67;;;16.90;68.90;15.80;96725.00;;;;4973272;28;20239;-88
2023/10/03 01:37:16;;;;;;;13.60;7.60;;;16.90;68.90;15.80;96727.00;;;;4972901;28;20267;-88
2023/10/03 01:39:47;;;;;;;13.40;7.97;;;16.90;68.90;15.80;96724.00;;;;4973396;28;20265;-88
2023/10/03 01:42:14;;;;;;;14.63;7.87;;;16.90;69.00;15.80;96723.00;;;;4958341;28;20211;-89
2023/10/03 01:44:41;;;;;;;14.83;7.97;;;16.90;69.10;15.80;96721.00;;;;4974411;28;20199;-88
2023/10/03 01:47:09;;;;;;;15.30;8.10;;;16.80;69.20;15.80;96715.00;;;;4973483;28;20235;-88
2023/10/03 01:49:38;;;;;;;18.70;9.33;;;16.80;69.20;15.80;96716.00;;;;4974264;28;20607;-88
2023/10/03 01:52:07;;;;;;;14.13;7.97;;;16.80;69.20;15.70;96704.00;;;;4974169;28;20672;-88
2023/10/03 01:54:35;;;;;;;16.47;8.60;;;16.80;69.20;15.70;96702.00;;;;4973661;28;20210;-88
2023/10/03 01:57:03;;;;;;;13.63;7.67;;;16.80;69.30;15.70;96709.00;;;;4974350;28;20236;-88
2023/10/03 01:59:31;;;;;;;18.13;8.40;;;16.80;69.30;15.70;96703.00;;;;4975441;28;20225;-88
2023/10/03 02:01:58;;;;;;;17.27;8.80;;;16.70;69.30;15.70;96706.00;;;;4973480;28;20265;-88
2023/10/03 02:04:28;;;;;;;17.27;8.27;;;16.70;69.30;15.70;96708.00;;;;4969385;28;20211;-88
2023/10/03 02:06:56;;;;;;;14.90;7.93;;;16.80;69.40;15.60;96700.00;;;;4963092;28;20227;-88
2023/10/03 02:09:23;;;;;;;13.60;7.97;;;16.70;69.30;15.60;96690.00;;;;4974356;28;20207;-88
2023/10/03 02:11:52;;;;;;;15.63;8.70;;;16.70;69.30;15.60;96691.00;;;;4972335;28;20313;-88
2023/10/03 02:14:28;;;;;;;13.90;7.43;;;16.70;69.30;15.60;96686.00;;;;4972256;28;20213;-88
2023/10/03 02:16:57;;;;;;;14.30;8.27;;;16.70;69.30;15.60;96693.00;;;;4972508;28;20273;-88
2023/10/03 02:19:26;;;;;;;15.30;7.73;;;16.70;69.20;15.50;96689.00;;;;4964483;28;20298;-88
2023/10/03 02:21:59;;;;;;;18.53;8.20;;;16.60;69.10;15.50;96681.00;;;;4972695;28;20631;-88
2023/10/03 02:24:27;;;;;;;14.80;7.90;;;16.60;69.90;15.50;96683.00;;;;4972689;28;20294;-88
2023/10/03 02:27:01;;;;;;;14.87;7.63;;;16.60;69.30;15.50;96678.00;;;;4972635;28;20258;-88
2023/10/03 02:29:35;;;;;;;15.23;8.10;;;16.60;69.20;15.50;96681.00;;;;4967520;28;20208;-88
2023/10/03 02:32:13;;;;;;;16.47;7.80;;;16.60;69.30;15.50;96672.00;;;;4963554;28;20235;-88
2023/10/03 02:34:47;;;;;;;17.47;7.93;;;16.60;69.20;15.50;96674.00;;;;4972750;28;20245;-88
2023/10/03 02:37:15;;;;;;;14.60;8.40;;;16.60;69.30;15.40;96673.00;;;;4972748;28;20313;-88
2023/10/03 02:39:43;;;;;;;14.13;7.97;;;16.50;69.10;15.40;96678.00;;;;4972857;28;20235;-88
2023/10/03 02:42:14;;;;;;;15.53;7.83;;;16.50;69.20;15.40;96667.00;;;;4955373;28;20216;-88
2023/10/03 02:44:43;;;;;;;12.23;7.00;;;16.50;69.20;15.40;96670.00;;;;4961019;28;20203;-88
2023/10/03 02:47:10;;;;;;;13.30;7.37;;;16.50;69.30;15.40;96656.00;;;;4973602;28;20222;-88
2023/10/03 02:49:39;;;;;;;14.67;7.63;;;16.40;69.30;15.40;96655.00;;;;4972578;28;20218;-88
2023/10/03 02:52:21;;;;;;;13.97;7.87;;;16.50;69.50;15.30;96648.00;;;;4971937;28;20229;-88
2023/10/03 02:54:49;;;;;;;14.63;7.93;;;16.40;69.50;15.30;96648.00;;;;4969739;28;20219;-88
2023/10/03 02:57:16;;;;;;;15.00;7.40;;;16.40;69.40;15.30;96643.00;;;;4972396;28;20235;-88
2023/10/03 02:59:46;;;;;;;12.67;7.40;;;16.40;69.40;15.30;96649.00;;;;4955048;28;20208;-88
2023/10/03 03:02:16;;;;;;;14.37;7.67;;;16.40;69.40;15.30;96643.00;;;;4954081;28;20227;-88
2023/10/03 03:04:54;;;;;;;17.20;8.60;;;16.40;69.40;15.30;96645.00;;;;4972579;28;20210;-88
2023/10/03 03:07:21;;;;;;;15.67;8.43;;;16.40;69.50;15.30;96645.00;;;;4965575;28;20230;-88
2023/10/03 03:09:50;;;;;;;15.00;7.20;;;16.40;69.50;15.20;96643.00;;;;4972418;28;20214;-88
2023/10/03 03:12:20;;;;;;;15.30;7.70;;;16.40;69.50;15.20;96635.00;;;;4972180;28;20290;-88
2023/10/03 03:14:48;;;;;;;13.10;7.30;;;16.40;69.70;15.20;96630.00;;;;4972945;28;20634;-88
2023/10/03 03:17:21;;;;;;;14.67;7.90;;;16.30;69.60;15.20;96636.00;;;;4961331;28;20262;-88
2023/10/03 03:19:54;;;;;;;14.20;7.60;;;16.30;69.70;15.20;96636.00;;;;4969208;28;20286;-88
2023/10/03 03:22:24;;;;;;;16.57;7.40;;;16.30;69.70;15.20;96632.00;;;;4968187;28;20204;-88
2023/10/03 03:24:54;;;;;;;18.20;9.13;;;16.30;69.70;15.20;96635.00;;;;4962148;28;20713;-88
2023/10/03 03:27:39;;;;;;;12.27;7.53;;;16.30;69.70;15.20;96648.00;;;;4972171;28;20227;-88
2023/10/03 03:33:06;;;;;;;11.67;6.80;;;16.30;69.80;15.10;96644.00;;;;4975711;28;20199;-89
2023/10/03 03:35:41;;;;;;;15.87;7.53;;;16.30;69.60;15.10;96644.00;;;;4961270;28;20227;-88
2023/10/03 03:38:16;;;;;;;14.77;8.13;;;16.20;69.60;15.10;96649.00;;;;4971464;28;20258;-89
2023/10/03 03:40:47;;;;;;;15.27;7.90;;;16.20;69.50;15.10;96639.00;;;;4963026;28;20245;-87
2023/10/03 03:43:17;;;;;;;15.00;8.10;;;16.20;69.50;15.10;96628.00;;;;4962596;28;20203;-88
2023/10/03 03:45:51;;;;;;;16.30;8.03;;;16.20;69.50;15.10;96628.00;;;;4969029;28;20546;-87
2023/10/03 03:48:21;;;;;;;13.30;7.17;;;16.20;69.50;15.00;96634.00;;;;4968912;28;20338;-88
2023/10/03 03:50:50;;;;;;;13.17;6.70;;;16.20;70.20;15.00;96629.00;;;;4962029;28;20667;-88
2023/10/03 03:53:18;;;;;;;17.17;8.23;;;16.10;69.50;15.00;96635.00;;;;4962958;28;20234;-88
2023/10/03 03:55:47;;;;;;;14.87;7.47;;;16.10;69.40;15.00;96635.00;;;;4962689;28;20211;-88
2023/10/03 03:58:18;;;;;;;12.77;7.07;;;16.10;69.40;15.00;96627.00;;;;4955901;28;20255;-88
2023/10/03 04:00:50;;;;;;;13.07;7.40;;;16.10;69.40;15.00;96629.00;;;;4971159;28;20287;-88
2023/10/03 04:03:19;;;;;;;16.20;8.40;;;16.10;69.40;14.90;96621.00;;;;4955867;28;20228;-87
2023/10/03 04:05:47;;;;;;;13.73;7.57;;;16.10;69.40;14.90;96616.00;;;;4964137;28;20285;-88
2023/10/03 04:08:15;;;;;;;16.23;7.53;;;16.10;69.40;14.90;96619.00;;;;4964522;28;20210;-88
2023/10/03 04:10:44;;;;;;;16.10;7.90;;;16.00;69.40;14.90;96615.00;;;;4972985;28;20207;-88
2023/10/03 04:13:15;;;;;;;16.33;7.90;;;16.00;69.40;14.90;96622.00;;;;4972772;28;20582;-88
2023/10/03 04:15:44;;;;;;;14.03;7.87;;;16.00;69.40;14.90;96619.00;;;;4972959;28;20256;-88
2023/10/03 04:18:14;;;;;;;13.63;6.77;;;16.00;69.40;14.80;96617.00;;;;4971251;28;20671;-88
2023/10/03 04:20:46;;;;;;;14.37;7.87;;;15.90;69.40;14.80;96617.00;;;;4971408;28;20206;-88
2023/10/03 04:23:14;;;;;;;14.17;7.63;;;15.90;69.40;14.80;96608.00;;;;4970919;28;20215;-87
2023/10/03 04:25:45;;;;;;;12.87;7.13;;;15.90;69.40;14.80;96612.00;;;;4971387;28;20235;-88
2023/10/03 04:28:16;;;;;;;13.10;6.93;;;15.90;69.40;14.80;96615.00;;;;4971166;28;20589;-88
2023/10/03 04:30:43;;;;;;;13.10;7.97;;;15.90;69.50;14.70;96608.00;;;;4971096;28;20571;-88
2023/10/03 04:33:17;;;;;;;14.00;6.63;;;15.90;69.40;14.70;96608.00;;;;4971519;28;20281;-88
2023/10/03 04:35:47;;;;;;;13.77;7.87;;;15.90;69.40;14.70;96615.00;;;;4971424;28;20209;-89
2023/10/03 04:38:17;;;;;;;13.47;6.63;;;15.90;69.40;14.70;96607.00;;;;4974268;28;20314;-88
2023/10/03 04:40:47;;;;;;;13.97;7.47;;;15.80;69.50;14.70;96612.00;;;;4972975;28;20199;-88
2023/10/03 04:43:15;;;;;;;14.23;7.47;;;15.80;69.50;14.70;96611.00;;;;4972994;28;20698;-88
2023/10/03 04:45:43;;;;;;;12.77;7.13;;;15.80;69.60;14.70;96618.00;;;;4973015;28;20200;-88
2023/10/03 04:48:15;;;;;;;14.40;7.40;;;15.80;69.60;14.60;96611.00;;;;4972985;28;20223;-88
2023/10/03 04:50:43;;;;;;;12.83;7.53;;;15.80;69.60;14.60;96608.00;;;;4973511;28;20260;-89
2023/10/03 04:53:14;;;;;;;15.07;8.77;;;15.70;69.50;14.60;96611.00;;;;4973247;28;20227;-88
2023/10/03 04:55:44;;;;;;;14.80;8.00;;;15.70;69.60;14.60;96617.00;;;;4975279;28;20196;-88
2023/10/03 04:58:15;;;;;;;13.70;7.70;;;15.70;69.70;14.60;96618.00;;;;4974704;28;20665;-88
2023/10/03 05:00:43;;;;;;;14.27;8.03;;;15.70;69.70;14.60;96617.00;;;;4974835;28;20190;-88
2023/10/03 05:03:14;;;;;;;13.93;7.73;;;15.70;69.70;14.60;96616.00;;;;4975495;28;20670;-88
2023/10/03 05:05:52;;;;;;;13.23;7.23;;;15.70;69.70;14.60;96621.00;;;;4975458;28;20203;-89
2023/10/03 05:08:22;;;;;;;16.30;8.03;;;15.70;69.90;14.50;96620.00;;;;4975005;28;20209;-88
2023/10/03 05:10:54;;;;;;;13.33;7.33;;;15.70;69.80;14.50;96620.00;;;;4974974;28;20210;-88
2023/10/03 05:13:22;;;;;;;12.80;7.30;;;15.70;69.80;14.50;96618.00;;;;4975018;28;20222;-88
2023/10/03 05:15:51;;;;;;;11.77;6.90;;;15.70;69.80;14.50;96615.00;;;;4974425;28;20215;-88
2023/10/03 05:18:29;;;;;;;14.80;7.63;;;15.70;69.80;14.50;96618.00;;;;4973856;28;20626;-88
2023/10/03 05:21:06;;;;;;;14.43;7.97;;;15.70;69.80;14.50;96616.00;;;;4973631;28;20211;-88
2023/10/03 05:23:34;;;;;;;13.00;7.30;;;15.70;70.20;14.50;96622.00;;;;4974743;28;20242;-89
2023/10/03 05:26:02;;;;;;;12.13;6.77;;;15.60;70.20;14.50;96618.00;;;;4974024;28;20204;-88
2023/10/03 05:28:30;;;;;;;10.07;5.97;;;15.60;70.30;14.50;96616.00;;;;4974612;28;20294;-88
2023/10/03 05:31:01;;;;;;;10.30;6.73;;;15.60;70.30;14.50;96624.00;;;;4954561;28;20212;-88
2023/10/03 05:33:31;;;;;;;13.47;6.77;;;15.60;70.40;14.50;96618.00;;;;4955490;29;20223;-88
2023/10/03 05:36:01;;;;;;;13.90;6.83;;;15.60;70.30;14.50;96622.00;;;;4954417;28;20200;-88
2023/10/03 05:38:33;;;;;;;14.43;6.90;;;15.60;70.50;14.50;96628.00;;;;4954390;28;20229;-88
2023/10/03 05:41:11;;;;;;;15.10;7.27;;;15.60;70.50;14.50;96627.00;;;;4954415;28;20200;-88
2023/10/03 05:43:43;;;;;;;13.00;7.00;;;15.60;70.50;14.50;96628.00;;;;4954064;29;20586;-88
2023/10/03 05:46:17;;;;;;;12.43;7.17;;;15.60;70.50;14.50;96621.00;;;;4953235;28;20804;-88
2023/10/03 05:48:51;;;;;;;13.03;6.73;;;15.60;70.60;14.50;96616.00;;;;4954463;28;20219;-91
2023/10/03 05:51:33;;;;;;;13.60;6.90;;;15.60;70.60;14.50;96630.00;;;;4956220;28;20204;-92
2023/10/03 05:54:16;;;;;;;10.90;5.70;;;15.60;70.80;14.60;96623.00;;;;4956121;28;20276;-91
2023/10/03 05:56:51;;;;;;;12.13;6.50;;;15.70;70.70;14.60;96625.00;;;;4956051;28;20625;-92
2023/10/03 05:59:24;;;;;;;11.70;6.73;;;15.70;70.70;14.60;96633.00;;;;4960059;28;20219;-90
2023/10/03 06:01:51;;;;;;;13.40;7.10;;;15.70;70.90;14.60;96628.00;;;;4974654;28;20646;-90
2023/10/03 06:04:18;;;;;;;12.93;6.97;;;15.70;70.80;14.70;96631.00;;;;4974664;28;20246;-91
2023/10/03 06:06:47;;;;;;;12.37;7.00;;;15.70;70.90;14.70;96624.00;;;;4959217;28;20278;-91
2023/10/03 06:09:17;;;;;;;12.40;6.43;;;15.80;71.10;14.70;96625.00;;;;4959203;28;20651;-91
2023/10/03 06:11:44;;;;;;;11.50;6.37;;;15.80;71.10;14.70;96635.00;;;;4970870;28;20648;-92
2023/10/03 06:14:12;;;;;;;10.90;7.00;;;15.80;71.00;14.80;96631.00;;;;4973471;28;20237;-90
2023/10/03 06:16:39;;;;;;;11.27;7.07;;;15.80;71.10;14.80;96633.00;;;;4973388;28;20699;-90
2023/10/03 06:19:09;;;;;;;11.90;6.90;;;15.90;71.30;14.90;96616.00;;;;4972982;28;20751;-90
2023/10/03 06:21:37;;;;;;;11.67;6.87;;;15.90;71.30;14.90;96623.00;;;;4974142;28;20206;-89
2023/10/03 06:24:06;;;;;;;14.30;7.10;;;15.90;71.60;14.90;96622.00;;;;4974053;28;20199;-91
2023/10/03 06:26:34;;;;;;;11.93;7.40;;;16.00;71.70;15.00;96630.00;;;;4973852;28;20255;-90
2023/10/03 06:29:02;;;;;;;10.87;6.77;;;16.00;71.70;15.00;96626.00;;;;4968643;28;20233;-91
2023/10/03 06:31:30;;;;;;;12.23;6.90;;;16.10;72.00;15.10;96635.00;;;;4961375;28;20192;-91
2023/10/03 06:33:57;;;;;;;13.67;7.30;;;16.10;72.20;15.10;96641.00;;;;4970618;28;20696;-90
2023/10/03 06:36:24;;;;;;;12.83;6.50;;;16.10;72.40;15.20;96643.00;;;;4975106;28;20227;-92
2023/10/03 06:38:52;;;;;;;9.97;5.63;;;15.80;72.20;15.20;96638.00;;;;4975425;28;20289;-91
2023/10/03 06:41:21;;;;;;;12.30;6.33;;;16.20;72.80;15.30;96641.00;;;;4974811;28;20243;-92
2023/10/03 06:43:49;;;;;;;12.07;6.80;;;16.30;73.10;15.40;96638.00;;;;4975490;28;20227;-93
2023/10/03 06:46:17;;;;;;;13.03;6.67;;;16.30;73.30;15.40;96633.00;;;;4976110;28;20231;-91
2023/10/03 06:48:46;;;;;;;11.50;6.80;;;16.40;73.60;15.50;96636.00;;;;4974678;28;20211;-91
2023/10/03 06:51:13;;;;;;;11.57;6.57;;;16.40;74.00;15.60;96643.00;;;;4974185;28;20199;-90
2023/10/03 06:53:46;;;;;;;13.50;6.87;;;16.50;74.30;15.70;96639.00;;;;4973678;28;20203;-91
2023/10/03 06:56:13;;;;;;;16.50;6.70;;;16.60;74.50;15.70;96627.00;;;;4974538;28;20231;-90
2023/10/03 06:58:42;;;;;;;13.03;6.50;;;16.70;74.80;15.80;96645.00;;;;4973916;28;20238;-90
2023/10/03 07:01:11;;;;;;;12.07;6.27;;;16.70;75.00;15.90;96636.00;;;;4974424;28;20203;-90
2023/10/03 07:03:40;;;;;;;14.23;6.97;;;16.80;75.10;16.00;96648.00;;;;4974768;28;20643;-90
2023/10/03 07:06:09;;;;;;;14.03;6.93;;;16.80;75.30;16.10;96654.00;;;;4974915;28;20223;-89
2023/10/03 07:08:41;;;;;;;10.93;6.77;;;16.90;75.50;16.20;96647.00;;;;4973939;28;20207;-89
2023/10/03 07:11:15;;;;;;;11.10;6.03;;;17.00;75.70;16.30;96648.00;;;;4973003;28;20282;-88
2023/10/03 07:13:56;;;;;;;13.00;6.73;;;17.10;76.10;16.40;96639.00;;;;4973101;28;20657;-89
2023/10/03 07:16:26;;;;;;;14.57;6.83;;;17.20;76.10;16.50;96644.00;;;;4972576;28;20207;-90
2023/10/03 07:18:56;;;;;;;11.27;6.90;;;17.30;76.10;16.60;96652.00;;;;4973024;28;20211;-89
2023/10/03 07:21:29;;;;;;;11.67;6.77;;;17.40;76.40;16.80;96650.00;;;;4973712;28;20215;-90
2023/10/03 07:23:56;;;;;;;13.73;6.97;;;17.50;76.70;16.90;96651.00;;;;4974393;28;20567;-90
2023/10/03 07:26:26;;;;;;;12.40;6.73;;;17.60;76.50;17.00;96659.00;;;;4973027;28;20231;-88
2023/10/03 07:29:11;;;;;;;14.17;6.70;;;17.70;76.60;17.10;96659.00;;;;4970598;28;20261;-88
2023/10/03 07:31:38;;;;;;;11.80;6.33;;;17.80;76.60;17.30;96651.00;;;;4974327;28;20203;-91
2023/10/03 07:34:08;;;;;;;11.50;5.90;;;17.90;76.40;17.40;96651.00;;;;4974594;28;20282;-91
2023/10/03 07:36:36;;;;;;;11.87;6.23;;;18.10;76.30;17.60;96655.00;;;;4974662;28;20219;-92
2023/10/03 07:39:04;;;;;;;11.73;5.97;;;18.20;76.20;17.70;96660.00;;;;4973818;28;20224;-90
2023/10/03 07:41:32;;;;;;;10.97;6.30;;;18.30;76.20;17.90;96662.00;;;;4966985;28;20216;-91
2023/10/03 07:44:05;;;;;;;9.63;5.57;;;18.40;76.00;18.00;96671.00;;;;4955211;28;20204;-91
2023/10/03 07:46:32;;;;;;;11.20;5.70;;;18.60;76.50;18.20;96664.00;;;;4968763;28;20592;-90
2023/10/03 07:49:01;;;;;;;10.70;5.30;;;18.70;76.50;18.40;96660.00;;;;4972181;28;20207;-90
2023/10/03 07:51:30;;;;;;;12.93;6.07;;;18.90;76.60;18.50;96676.00;;;;4959712;28;20210;-91
2023/10/03 07:53:57;;;;;;;12.13;6.33;;;19.00;76.40;18.70;96675.00;;;;4973692;28;20294;-91
2023/10/03 07:56:30;;;;;;;8.83;5.50;;;19.20;76.40;18.90;96676.00;;;;4973206;28;20251;-90
2023/10/03 07:59:01;;;;;;;10.87;6.13;;;19.40;76.30;19.00;96674.00;;;;4972838;28;20281;-91
2023/10/03 08:01:31;;;;;;;9.83;5.50;;;19.50;75.90;19.20;96677.00;;;;4973443;28;20180;-91
2023/10/03 08:03:59;;;;;;;10.17;5.63;;;19.70;76.40;19.30;96668.00;;;;4973686;28;20219;-90
2023/10/03 08:06:33;;;;;;;9.43;5.03;;;19.80;75.60;19.50;96676.00;;;;4973490;28;20232;-91
2023/10/03 08:09:01;;;;;;;9.53;5.50;;;20.00;75.30;19.60;96667.00;;;;4973310;28;20276;-90
2023/10/03 08:11:33;;;;;;;12.20;6.03;;;20.10;74.90;19.80;96679.00;;;;4973536;28;20207;-90
2023/10/03 08:14:11;;;;;;;12.20;6.43;;;20.30;74.80;20.00;96675.00;;;;4973731;28;20200;-91
2023/10/03 08:16:41;;;;;;;10.97;5.70;;;20.40;74.80;20.10;96679.00;;;;4973543;28;20222;-91
2023/10/03 08:19:09;;;;;;;12.07;5.83;;;20.60;74.80;20.30;96680.00;;;;4972196;28;20318;-91
2023/10/03 08:21:43;;;;;;;10.97;5.70;;;20.80;74.80;20.50;96689.00;;;;4973630;28;20263;-90
2023/10/03 08:24:14;;;;;;;12.13;6.50;;;20.90;74.70;20.70;96673.00;;;;4973097;28;20287;-90
2023/10/03 08:26:46;;;;;;;10.17;5.30;;;21.10;74.40;20.80;96687.00;;;;4972609;28;20281;-91
2023/10/03 08:29:21;;;;;;;10.13;5.53;;;21.30;74.40;21.00;96699.00;;;;4961221;28;20219;-91
2023/10/03 08:31:56;;;;;;;9.20;5.67;;;21.40;73.60;21.20;96692.00;;;;4968257;28;20210;-91
2023/10/03 08:34:25;;;;;;;11.33;5.67;;;21.60;73.00;21.40;96696.00;;;;4952367;28;20651;-90
2023/10/03 08:36:54;;;;;;;9.27;5.30;;;21.80;72.50;21.60;96701.00;;;;4952892;29;20576;-91
2023/10/03 08:39:23;;;;;;;9.87;5.63;;;22.00;72.50;21.80;96683.00;;;;4965908;28;20252;-91
2023/10/03 08:42:12;;;;;;;11.07;6.63;;;22.20;72.40;22.00;96695.00;;;;4973081;28;20196;-91
2023/10/03 08:44:51;;;;;;;9.63;5.50;;;22.30;72.20;22.20;96700.00;;;;4953998;29;20243;-90
2023/10/03 08:47:28;;;;;;;9.00;5.07;;;22.50;71.50;22.40;96693.00;;;;4953982;29;20216;-91
2023/10/03 08:50:10;;;;;;;9.07;5.90;;;22.70;71.30;22.60;96694.00;;;;4961761;28;20217;-91
2023/10/03 08:52:46;;;;;;;9.70;6.27;;;22.90;71.30;22.80;96702.00;;;;4955069;29;20215;-91
2023/10/03 08:55:18;;;;;;;9.07;5.83;;;23.10;70.90;23.00;96706.00;;;;4956599;28;20210;-91
2023/10/03 08:57:48;;;;;;;9.77;4.90;;;23.30;70.50;23.10;96697.00;;;;4972789;28;20596;-90
2023/10/03 09:00:23;;;;;;;8.47;5.03;;;23.40;69.60;23.30;96700.00;;;;4972839;28;20234;-92
2023/10/03 09:03:08;;;;;;;10.70;5.43;;;23.60;69.20;23.50;96702.00;;;;4972762;28;20216;-91
2023/10/03 09:05:39;;;;;;;7.53;5.00;;;23.80;68.10;23.70;96702.00;;;;4973632;28;20751;-91
2023/10/03 09:08:09;;;;;;;7.53;4.63;;;23.90;68.70;23.80;96703.00;;;;4973438;28;20235;-90
2023/10/03 09:10:51;;;;;;;8.37;4.73;;;24.10;68.20;24.00;96698.00;;;;4959681;28;20241;-91
2023/10/03 09:13:24;;;;;;;8.27;4.70;;;24.30;68.10;24.20;96699.00;;;;4953791;28;20208;-91
2023/10/03 09:15:59;;;;;;;6.23;4.27;;;24.40;68.20;24.40;96699.00;;;;4970900;28;20271;-91
2023/10/03 09:18:40;;;;;;;7.63;4.73;;;24.60;67.80;24.50;96705.00;;;;4958903;28;20246;-91
2023/10/03 09:21:08;;;;;;;8.33;4.70;;;24.80;66.80;24.70;96702.00;;;;4953063;28;20204;-92
2023/10/03 09:23:40;;;;;;;7.10;4.80;;;24.90;66.60;24.90;96697.00;;;;4960569;28;20227;-91
2023/10/03 09:26:08;;;;;;;8.67;3.97;;;25.10;66.30;25.10;96700.00;;;;4973837;28;20234;-91
2023/10/03 09:28:40;;;;;;;6.03;4.10;;;25.30;65.10;25.20;96695.00;;;;4974372;28;20238;-91
2023/10/03 09:31:09;;;;;;;8.27;4.80;;;25.40;64.70;25.40;96691.00;;;;4966816;28;20198;-91
2023/10/03 09:33:40;;;;;;;7.17;4.33;;;25.60;64.20;25.50;96697.00;;;;4975021;28;20287;-91
2023/10/03 09:36:09;;;;;;;9.47;4.77;;;25.80;63.90;25.70;96694.00;;;;4975541;28;20255;-91
2023/10/03 09:38:45;;;;;;;6.60;4.20;;;25.90;63.40;25.90;96693.00;;;;4975865;28;20602;-91
2023/10/03 09:41:18;;;;;;;7.63;4.60;;;26.10;62.90;26.10;96695.00;;;;4972518;28;20195;-91
2023/10/03 09:43:53;;;;;;;6.60;4.30;;;26.20;62.60;26.20;96685.00;;;;4956302;28;20250;-91
2023/10/03 09:46:38;;;;;;;7.38;4.63;;;26.40;62.30;26.40;96684.00;;;;4960726;28;20269;-92
2023/10/03 09:49:10;;;;;;;7.03;4.10;;;25.50;61.20;26.60;96690.00;;;;4973640;28;20546;-91
2023/10/03 09:51:46;;;;;;;5.78;3.88;;;26.70;61.40;26.70;96688.00;;;;4957002;28;20262;-91
2023/10/03 09:54:24;;;;;;;5.53;3.60;;;26.90;62.00;26.90;96672.00;;;;4956896;28;20227;-91
2023/10/03 09:56:55;;;;;;;5.53;4.20;;;27.00;61.00;27.00;96673.00;;;;4965270;28;20309;-91
2023/10/03 09:59:26;;;;;;;6.13;4.00;;;27.20;60.80;27.10;96682.00;;;;4956874;28;20235;-92
2023/10/03 10:01:56;;;;;;;7.43;4.18;;;27.30;60.10;27.20;96682.00;;;;4956638;28;20643;-91
2023/10/03 10:04:30;;;;;;;5.03;4.13;;;27.40;60.40;27.40;96684.00;;;;4956746;29;20203;-91
2023/10/03 10:07:16;;;;;;;5.50;3.72;;;27.50;59.60;27.50;96686.00;;;;4973415;28;20227;-92
2023/10/03 10:09:57;;;;;;;4.32;3.45;;;27.70;59.40;27.60;96687.00;;;;4975489;28;20211;-91
2023/10/03 10:12:25;;;;;;;5.47;3.28;;;27.80;58.60;27.80;96685.00;;;;4968368;28;20239;-91
2023/10/03 10:15:17;;;;;;;6.15;3.25;;;27.90;58.80;27.90;96680.00;;;;4974590;28;20199;-91
2023/10/03 10:17:49;;;;;;;6.22;3.78;;;28.00;57.50;28.00;96685.00;;;;4974902;28;20246;-91
2023/10/03 10:20:21;;;;;;;3.50;2.95;;;28.20;57.60;28.10;96674.00;;;;4966788;28;20701;-91
2023/10/03 10:23:16;;;;;;;5.18;2.97;;;28.30;56.80;28.30;96680.00;;;;4974505;28;20735;-91
2023/10/03 10:25:51;;;;;;;3.75;3.30;;;28.40;56.10;28.40;96675.00;;;;4970900;28;20207;-91
2023/10/03 10:28:26;;;;;;;3.78;3.28;;;28.50;55.90;28.60;96680.00;;;;4974730;28;20280;-91
2023/10/03 10:31:25;;;;;;;5.18;3.30;;;28.70;55.70;28.80;96675.00;;;;4975660;28;20648;-91
2023/10/03 10:34:46;;;;;;;5.32;3.70;;;28.80;53.70;28.90;96682.00;;;;4974780;28;20211;-92
2023/10/03 10:37:18;;;;;;;3.85;3.03;;;29.00;53.50;29.00;96672.00;;;;4966893;28;20247;-92
2023/10/03 10:40:17;;;;;;;6.07;3.70;;;29.10;54.70;29.10;96661.00;;;;4971077;28;20250;-91
2023/10/03 10:43:06;;;;;;;5.20;3.35;;;29.20;53.80;29.20;96653.00;;;;4960078;28;20728;-91
2023/10/03 10:45:42;;;;;;;3.55;2.72;;;29.30;53.70;29.20;96658.00;;;;4970102;28;20269;-91
2023/10/03 10:48:11;;;;;;;4.95;3.63;;;29.40;53.70;29.30;96647.00;;;;4968035;28;20736;-91
2023/10/03 10:51:10;;;;;;;9.25;3.22;;;29.40;53.00;29.30;96660.00;;;;4974110;28;20265;-91
2023/10/03 10:53:42;;;;;;;6.15;3.17;;;29.40;51.80;29.30;96665.00;;;;5002309;28;20745;-91
2023/10/03 10:56:11;;;;;;;3.60;3.08;;;29.50;52.90;29.40;96666.00;;;;4973441;28;20670;-92
2023/10/03 10:59:01;;;;;;;4.82;3.40;;;29.50;52.90;29.40;96654.00;;;;4960787;28;20195;-91
2023/10/03 11:01:30;;;;;;;3.75;2.80;;;29.50;51.80;29.40;96649.00;;;;4969734;28;20196;-92
2023/10/03 11:03:59;;;;;;;3.97;2.92;;;29.60;52.40;29.40;96660.00;;;;4963193;28;20208;-91
2023/10/03 11:06:26;;;;;;;4.38;3.10;;;29.60;52.30;29.40;96648.00;;;;4972371;28;20773;-91
2023/10/03 11:08:55;;;;;;;4.18;2.90;;;29.60;52.20;29.40;96647.00;;;;4971641;28;20211;-92
2023/10/03 11:11:36;;;;;;;4.25;3.22;;;29.60;51.50;29.40;96650.00;;;;4958152;28;20214;-92
2023/10/03 11:14:03;;;;;;;3.60;3.03;;;29.60;51.40;29.50;96643.00;;;;4970544;28;20225;-92
2023/10/03 11:16:31;;;;;;;3.97;2.67;;;29.60;51.00;29.50;96623.00;;;;4961267;28;20255;-91